Time;durP1;ratioP1;P1;durP2;ratioP2;P2;SDS_P1;SDS_P2;PMS_P1;PMS_P2;Temp;Humidity;BMP_temperature;BMP_pressure;BME280_temperature;BME280_humidity;BME280_pressure;Samples;Min_cycle;Max_cycle;Signal;HPM_P1;HPM_P2
2022/07/20 00:00:05;;;;;;;7.40;3.00;;;26.50;70.20;;;;;;5065956;28;20417;-73
2022/07/20 00:02:30;;;;;;;5.70;3.05;;;26.40;70.30;;;;;;5046413;28;20045;-73
2022/07/20 00:04:56;;;;;;;9.10;3.03;;;26.30;70.40;;;;;;5067594;28;20131;-73
2022/07/20 00:07:21;;;;;;;6.28;2.97;;;26.30;70.70;;;;;;5067558;28;20141;-73
2022/07/20 00:12:31;;;;;;;7.13;2.85;;;26.20;70.90;;;;;;5067100;28;20489;-73
2022/07/20 00:14:57;;;;;;;6.47;2.90;;;26.10;70.80;;;;;;5067594;28;20087;-73
2022/07/20 00:17:22;;;;;;;7.03;3.20;;;26.10;70.90;;;;;;5068415;28;20041;-73
2022/07/20 00:19:48;;;;;;;8.30;3.33;;;26.00;71.00;;;;;;5067588;28;20066;-73
2022/07/20 00:22:13;;;;;;;7.53;3.00;;;25.90;71.00;;;;;;5067427;28;20075;-73
2022/07/20 00:24:39;;;;;;;10.02;3.38;;;25.90;71.20;;;;;;5070785;28;20377;-74
2022/07/20 00:27:05;;;;;;;6.60;3.03;;;25.90;71.40;;;;;;5053267;28;20036;-73
2022/07/20 00:29:30;;;;;;;7.10;2.90;;;25.80;71.50;;;;;;5070692;28;20078;-73
2022/07/20 00:31:56;;;;;;;12.50;3.20;;;25.80;71.60;;;;;;5070524;28;20040;-73
2022/07/20 00:34:22;;;;;;;6.03;3.28;;;25.70;71.60;;;;;;5071890;28;20066;-73
2022/07/20 00:36:47;;;;;;;8.40;3.10;;;25.70;71.80;;;;;;5070914;28;20068;-74
2022/07/20 00:39:13;;;;;;;8.40;3.10;;;25.60;71.80;;;;;;5069982;28;20116;-74
2022/07/20 00:41:38;;;;;;;9.32;3.60;;;25.50;72.00;;;;;;5071823;28;20041;-73
2022/07/20 00:44:07;;;;;;;8.25;3.30;;;25.50;72.00;;;;;;5070237;28;20047;-73
2022/07/20 00:46:44;;;;;;;5.70;3.05;;;25.50;71.90;;;;;;5052783;28;20045;-72
2022/07/20 00:49:11;;;;;;;6.80;2.95;;;25.50;72.30;;;;;;5068460;28;20089;-73
2022/07/20 00:51:40;;;;;;;11.05;3.17;;;25.40;72.30;;;;;;5051429;28;20048;-73
2022/07/20 00:54:06;;;;;;;10.90;3.45;;;25.40;72.20;;;;;;5067429;28;20127;-72
2022/07/20 00:56:33;;;;;;;10.23;3.28;;;25.30;72.50;;;;;;5070979;28;20217;-72
2022/07/20 00:59:06;;;;;;;5.88;3.10;;;25.30;72.50;;;;;;5069946;28;20127;-75
2022/07/20 01:01:32;;;;;;;7.82;3.20;;;25.20;72.40;;;;;;5070383;28;20094;-73
2022/07/20 01:03:58;;;;;;;9.15;3.30;;;25.10;72.40;;;;;;5054397;28;20068;-72
2022/07/20 01:06:24;;;;;;;7.25;3.10;;;25.10;72.50;;;;;;5071060;28;20652;-72
2022/07/20 01:08:50;;;;;;;7.80;3.40;;;25.10;72.70;;;;;;5070657;28;20132;-75
2022/07/20 01:11:17;;;;;;;9.82;3.33;;;25.10;72.70;;;;;;5053288;28;20048;-72
2022/07/20 01:13:43;;;;;;;7.50;3.13;;;25.00;72.90;;;;;;5070920;28;20056;-74
2022/07/20 01:16:09;;;;;;;7.78;3.13;;;25.00;72.90;;;;;;5062747;28;20045;-74
2022/07/20 01:18:34;;;;;;;7.15;3.00;;;25.00;72.90;;;;;;5030752;28;20087;-74
2022/07/20 01:21:04;;;;;;;8.20;3.03;;;25.00;72.90;;;;;;5074898;28;20076;-75
2022/07/20 01:23:30;;;;;;;16.65;3.20;;;25.00;73.00;;;;;;5075050;28;20036;-75
2022/07/20 01:25:57;;;;;;;9.63;3.15;;;25.00;73.00;;;;;;5075078;28;20044;-73
2022/07/20 01:28:23;;;;;;;7.45;3.17;;;24.90;73.10;;;;;;5066752;28;20060;-74
2022/07/20 01:30:49;;;;;;;8.45;3.67;;;24.90;73.80;;;;;;5075005;28;20053;-74
2022/07/20 01:33:15;;;;;;;8.27;3.20;;;24.80;73.50;;;;;;5057268;28;20044;-74
2022/07/20 01:35:41;;;;;;;7.47;3.15;;;24.80;73.40;;;;;;5074662;28;20056;-74
2022/07/20 01:38:06;;;;;;;7.35;3.30;;;24.70;73.70;;;;;;5075120;28;20473;-74
2022/07/20 01:40:32;;;;;;;7.55;3.25;;;24.70;73.90;;;;;;5075339;28;20043;-74
2022/07/20 01:42:58;;;;;;;6.28;3.10;;;24.60;74.40;;;;;;5074556;28;20508;-74
2022/07/20 01:45:23;;;;;;;8.13;3.00;;;24.60;74.10;;;;;;5075056;28;20051;-74
2022/07/20 01:47:49;;;;;;;6.70;3.15;;;24.50;74.10;;;;;;5054642;28;20051;-74
2022/07/20 01:50:15;;;;;;;6.97;3.22;;;24.50;74.00;;;;;;5074654;28;20048;-74
2022/07/20 01:52:41;;;;;;;7.65;3.00;;;24.50;74.10;;;;;;5061107;28;20041;-72
2022/07/20 01:55:07;;;;;;;11.75;3.42;;;24.50;74.20;;;;;;5075063;28;20068;-72
2022/07/20 01:57:32;;;;;;;8.20;3.33;;;24.50;74.20;;;;;;5052921;28;20049;-72
2022/07/20 01:59:58;;;;;;;8.93;3.10;;;24.50;74.20;;;;;;5056468;28;20055;-72
2022/07/20 02:02:24;;;;;;;6.40;3.03;;;24.50;74.10;;;;;;5074344;28;20036;-72
2022/07/20 02:04:49;;;;;;;7.63;3.17;;;24.40;74.00;;;;;;5056951;28;20049;-72
2022/07/20 02:07:15;;;;;;;8.88;3.33;;;24.40;74.20;;;;;;5074129;28;20561;-74
2022/07/20 02:09:41;;;;;;;9.95;3.25;;;24.40;74.40;;;;;;5056574;28;20054;-75
2022/07/20 02:12:07;;;;;;;6.35;3.20;;;24.40;74.50;;;;;;5074286;28;20049;-75
2022/07/20 02:14:33;;;;;;;8.55;3.30;;;24.30;74.60;;;;;;5074835;28;20049;-74
2022/07/20 02:16:59;;;;;;;6.10;3.03;;;24.20;74.40;;;;;;5074182;28;20051;-75
2022/07/20 02:19:25;;;;;;;8.65;3.40;;;24.20;74.60;;;;;;5074566;28;20057;-73
2022/07/20 02:21:50;;;;;;;8.40;3.22;;;24.20;74.60;;;;;;5073792;28;20401;-73
2022/07/20 02:24:16;;;;;;;7.03;3.22;;;24.20;74.90;;;;;;5074828;28;20462;-73
2022/07/20 02:26:42;;;;;;;5.32;3.17;;;24.10;74.80;;;;;;5074158;28;20044;-73
2022/07/20 02:29:07;;;;;;;6.43;3.03;;;24.10;74.60;;;;;;5055090;28;20052;-73
2022/07/20 02:31:33;;;;;;;8.07;3.20;;;24.10;74.90;;;;;;5073386;28;20044;-73
2022/07/20 02:33:59;;;;;;;5.55;3.10;;;24.10;74.90;;;;;;5074283;28;20052;-73
2022/07/20 02:36:25;;;;;;;5.03;3.22;;;24.10;74.90;;;;;;5073568;28;20051;-72
2022/07/20 02:38:50;;;;;;;7.63;3.20;;;24.40;75.10;;;;;;5073984;28;20040;-73
2022/07/20 02:41:16;;;;;;;8.57;3.20;;;24.10;75.10;;;;;;5056138;28;20508;-73
2022/07/20 02:43:42;;;;;;;9.23;3.30;;;24.00;74.90;;;;;;5074122;28;20047;-73
2022/07/20 02:46:07;;;;;;;7.57;3.15;;;24.00;75.10;;;;;;5073109;28;20044;-73
2022/07/20 02:48:33;;;;;;;6.75;3.20;;;23.90;75.10;;;;;;5073328;28;20048;-73
2022/07/20 02:50:59;;;;;;;9.00;3.15;;;23.90;74.80;;;;;;5074051;28;20497;-73
2022/07/20 02:53:25;;;;;;;11.50;3.50;;;23.90;75.20;;;;;;5073157;28;20469;-73
2022/07/20 02:55:50;;;;;;;7.32;3.55;;;23.90;75.30;;;;;;5042131;28;20040;-73
2022/07/20 02:58:16;;;;;;;6.70;2.90;;;23.90;75.10;;;;;;5064833;28;20044;-72
2022/07/20 03:00:42;;;;;;;7.78;2.97;;;23.90;74.90;;;;;;5072972;28;20068;-75
2022/07/20 03:03:08;;;;;;;7.30;3.28;;;23.90;75.60;;;;;;5053848;28;20147;-73
2022/07/20 03:05:34;;;;;;;5.15;3.08;;;23.90;75.30;;;;;;5074001;28;20529;-73
2022/07/20 03:08:00;;;;;;;8.50;3.22;;;23.80;75.30;;;;;;5073726;28;20047;-73
2022/07/20 03:10:26;;;;;;;7.22;3.30;;;23.80;75.50;;;;;;5055611;28;20044;-73
2022/07/20 03:12:52;;;;;;;6.68;3.45;;;23.80;75.40;;;;;;5072936;28;20460;-74
2022/07/20 03:15:18;;;;;;;11.10;3.50;;;23.80;75.30;;;;;;5073487;28;20080;-72
2022/07/20 03:17:46;;;;;;;7.82;3.38;;;23.80;75.60;;;;;;5055055;28;20123;-73
2022/07/20 03:20:15;;;;;;;10.23;3.30;;;23.70;75.70;;;;;;5072511;28;20094;-73
2022/07/20 03:22:41;;;;;;;9.23;3.38;;;23.70;76.00;;;;;;5072697;28;20052;-74
2022/07/20 03:25:08;;;;;;;6.72;3.40;;;23.70;75.90;;;;;;5073582;28;20443;-73
2022/07/20 03:27:33;;;;;;;5.70;3.22;;;23.60;76.20;;;;;;5072519;28;20036;-74
2022/07/20 03:29:59;;;;;;;8.23;3.53;;;23.60;76.40;;;;;;5073230;28;20496;-73
2022/07/20 03:32:25;;;;;;;5.68;3.15;;;23.50;76.40;;;;;;5072906;28;20079;-73
2022/07/20 03:34:50;;;;;;;10.10;3.40;;;23.50;76.60;;;;;;5072192;28;20503;-73
2022/07/20 03:37:16;;;;;;;9.70;3.30;;;23.50;76.80;;;;;;5071015;28;20051;-74
2022/07/20 03:39:41;;;;;;;5.28;3.15;;;23.40;76.50;;;;;;5072983;28;20044;-73
2022/07/20 03:42:07;;;;;;;9.52;3.50;;;23.40;76.80;;;;;;5072335;28;20036;-74
2022/07/20 03:44:32;;;;;;;8.20;3.50;;;23.40;76.80;;;;;;5055140;28;20048;-73
2022/07/20 03:46:58;;;;;;;7.13;3.40;;;23.30;77.00;;;;;;5072619;28;20497;-73
2022/07/20 03:49:24;;;;;;;12.95;3.60;;;23.40;77.40;;;;;;5072741;28;20040;-73
2022/07/20 03:51:49;;;;;;;6.00;3.17;;;23.30;77.30;;;;;;5054456;28;20045;-73
2022/07/20 03:54:15;;;;;;;8.63;3.35;;;23.30;77.20;;;;;;5072647;28;20121;-73
2022/07/20 03:56:41;;;;;;;7.55;3.30;;;23.30;77.40;;;;;;5050851;28;20036;-74
2022/07/20 03:59:10;;;;;;;5.38;3.35;;;23.20;77.40;;;;;;5072592;28;20043;-73
2022/07/20 04:01:36;;;;;;;8.27;3.50;;;23.30;77.70;;;;;;5054243;28;20048;-73
2022/07/20 04:04:02;;;;;;;6.18;3.50;;;23.20;77.60;;;;;;5072727;28;20485;-73
2022/07/20 04:06:28;;;;;;;7.05;3.30;;;23.20;78.00;;;;;;5072617;28;20416;-73
2022/07/20 04:08:54;;;;;;;8.93;3.30;;;23.20;78.00;;;;;;5072222;28;20036;-74
2022/07/20 04:11:20;;;;;;;6.95;3.45;;;23.20;78.00;;;;;;5072089;28;20057;-73
2022/07/20 04:13:45;;;;;;;6.75;3.10;;;23.20;79.10;;;;;;5054399;28;20047;-73
2022/07/20 04:16:11;;;;;;;6.35;3.60;;;23.10;78.30;;;;;;5072650;28;20497;-73
2022/07/20 04:18:37;;;;;;;6.47;3.40;;;23.20;78.50;;;;;;5054347;28;20091;-74
2022/07/20 04:21:02;;;;;;;6.50;3.60;;;23.10;78.50;;;;;;5072529;28;20040;-73
2022/07/20 04:23:28;;;;;;;5.82;3.35;;;23.10;78.70;;;;;;5071585;28;20040;-73
2022/07/20 04:25:54;;;;;;;9.02;3.50;;;23.10;78.90;;;;;;5072788;28;20043;-73
2022/07/20 04:28:19;;;;;;;7.40;3.50;;;23.10;78.50;;;;;;5071988;28;20036;-73
2022/07/20 04:30:45;;;;;;;6.07;3.25;;;23.20;78.60;;;;;;5053973;28;20083;-73
2022/07/20 04:33:11;;;;;;;6.90;3.75;;;23.30;78.40;;;;;;5067445;28;20084;-73
2022/07/20 04:35:36;;;;;;;7.78;3.35;;;23.30;78.30;;;;;;5052507;28;20048;-72
2022/07/20 04:38:02;;;;;;;6.38;3.30;;;23.30;78.10;;;;;;5041659;28;20089;-73
2022/07/20 04:40:28;;;;;;;7.95;3.58;;;23.30;78.10;;;;;;5053934;28;20482;-73
2022/07/20 04:42:54;;;;;;;7.28;3.58;;;23.40;78.00;;;;;;5072083;28;20082;-73
2022/07/20 04:45:20;;;;;;;5.97;3.40;;;23.40;77.80;;;;;;5037943;28;20048;-73
2022/07/20 04:47:46;;;;;;;7.47;3.55;;;23.40;77.80;;;;;;5072074;28;20040;-72
2022/07/20 04:50:12;;;;;;;9.15;4.10;;;23.40;77.90;;;;;;5072341;28;20041;-73
2022/07/20 04:52:38;;;;;;;8.38;3.70;;;23.40;78.00;;;;;;5071737;28;20048;-73
2022/07/20 04:55:04;;;;;;;6.20;3.40;;;23.40;77.80;;;;;;5071918;28;20127;-73
2022/07/20 04:57:30;;;;;;;9.98;3.80;;;23.40;77.90;;;;;;5071739;28;20101;-73
2022/07/20 04:59:56;;;;;;;7.00;3.47;;;23.50;77.60;;;;;;5054179;28;20048;-73
2022/07/20 05:02:21;;;;;;;8.35;3.40;;;23.50;77.50;;;;;;5071766;28;20079;-73
2022/07/20 05:04:47;;;;;;;7.50;3.50;;;23.40;77.60;;;;;;5072064;28;20127;-73
2022/07/20 05:07:13;;;;;;;5.20;3.30;;;23.50;78.10;;;;;;5070864;28;20029;-72
2022/07/20 05:09:40;;;;;;;5.88;3.15;;;23.60;77.40;;;;;;5071460;28;20049;-75
2022/07/20 05:12:05;;;;;;;7.03;3.47;;;23.70;77.10;;;;;;5071382;28;20215;-83
2022/07/20 05:14:31;;;;;;;8.18;3.45;;;23.70;77.20;;;;;;5058561;28;20508;-82
2022/07/20 05:16:57;;;;;;;10.68;4.03;;;23.80;77.40;;;;;;5076258;28;20508;-82
2022/07/20 05:19:22;;;;;;;10.77;3.42;;;23.70;77.10;;;;;;5076041;28;20048;-82
2022/07/20 05:21:48;;;;;;;11.18;3.63;;;23.80;76.70;;;;;;5075607;28;20048;-83
2022/07/20 05:24:13;;;;;;;6.20;3.70;;;23.90;76.50;;;;;;5064519;28;20066;-83
2022/07/20 05:26:39;;;;;;;7.70;3.58;;;23.90;76.40;;;;;;5075501;28;20040;-84
2022/07/20 05:29:05;;;;;;;11.98;3.78;;;24.00;76.30;;;;;;5075866;28;20037;-82
2022/07/20 05:31:30;;;;;;;14.18;4.00;;;24.00;76.30;;;;;;5075170;28;20041;-82
2022/07/20 05:33:56;;;;;;;12.50;3.80;;;24.00;75.90;;;;;;5075375;28;20037;-83
2022/07/20 05:36:22;;;;;;;8.80;3.90;;;24.10;75.60;;;;;;5075195;28;20063;-83
2022/07/20 05:38:47;;;;;;;12.10;3.85;;;24.20;75.70;;;;;;5075033;28;20045;-81
2022/07/20 05:41:13;;;;;;;11.23;3.78;;;24.20;75.70;;;;;;5075201;28;20146;-83
2022/07/20 05:43:38;;;;;;;11.63;3.90;;;24.20;75.80;;;;;;5074723;28;20080;-82
2022/07/20 05:46:04;;;;;;;18.02;4.30;;;24.30;75.70;;;;;;5055426;28;20044;-83
2022/07/20 05:48:31;;;;;;;11.93;3.90;;;24.30;75.80;;;;;;5055309;28;20115;-83
2022/07/20 05:50:57;;;;;;;15.45;3.70;;;24.40;75.90;;;;;;5054957;28;20041;-84
2022/07/20 05:53:22;;;;;;;9.85;3.70;;;24.50;75.70;;;;;;5018725;28;20127;-84
2022/07/20 05:55:48;;;;;;;8.05;3.33;;;24.50;75.70;;;;;;5064629;28;20115;-82
2022/07/20 05:58:14;;;;;;;7.60;3.55;;;24.50;75.80;;;;;;5073039;28;20379;-82
2022/07/20 06:00:39;;;;;;;9.05;3.90;;;24.60;75.70;;;;;;5073948;28;20397;-83
2022/07/20 06:03:06;;;;;;;7.72;3.65;;;24.60;75.70;;;;;;5075860;28;20382;-82
2022/07/20 06:05:33;;;;;;;8.88;3.80;;;24.70;75.90;;;;;;5075477;28;20098;-83
2022/07/20 06:08:02;;;;;;;8.77;3.72;;;24.70;75.90;;;;;;5074785;28;20508;-83
2022/07/20 06:10:30;;;;;;;9.90;3.80;;;24.80;76.10;;;;;;5075098;28;20044;-81
2022/07/20 06:12:57;;;;;;;9.18;3.70;;;24.80;76.00;;;;;;5074652;28;20114;-82
2022/07/20 06:15:25;;;;;;;9.75;3.92;;;24.90;76.20;;;;;;5056845;28;20052;-81
2022/07/20 06:17:52;;;;;;;11.98;3.83;;;24.90;76.30;;;;;;5056813;28;20044;-82
2022/07/20 06:20:18;;;;;;;11.00;4.15;;;24.90;76.40;;;;;;5074292;28;20051;-82
2022/07/20 06:22:44;;;;;;;7.63;3.80;;;25.00;76.60;;;;;;5056623;28;20127;-83
2022/07/20 06:25:12;;;;;;;11.55;3.70;;;25.10;76.50;;;;;;5074357;28;20044;-83
2022/07/20 06:27:38;;;;;;;12.23;3.80;;;25.10;76.60;;;;;;5074548;28;20436;-83
2022/07/20 06:30:05;;;;;;;8.10;3.92;;;25.20;76.90;;;;;;5073419;28;20059;-83
2022/07/20 06:32:32;;;;;;;11.93;3.95;;;25.30;76.90;;;;;;5055377;28;20036;-82
2022/07/20 06:34:58;;;;;;;7.15;3.60;;;25.30;76.70;;;;;;5073034;28;20133;-83
2022/07/20 06:37:24;;;;;;;10.80;3.90;;;25.40;76.70;;;;;;5074235;28;20084;-75
2022/07/20 06:39:50;;;;;;;10.68;3.80;;;25.40;76.80;;;;;;5056033;28;20080;-73
2022/07/20 06:42:16;;;;;;;6.55;3.42;;;25.50;76.70;;;;;;5055413;28;20059;-73
2022/07/20 06:44:43;;;;;;;7.30;4.00;;;25.50;76.40;;;;;;5073645;28;20488;-72
2022/07/20 06:47:09;;;;;;;8.95;3.50;;;25.60;76.40;;;;;;5071560;28;20079;-73
2022/07/20 06:49:35;;;;;;;9.77;3.80;;;25.70;76.30;;;;;;5072370;28;20048;-73
2022/07/20 06:52:00;;;;;;;6.38;3.90;;;25.70;76.40;;;;;;5073362;28;20047;-73
2022/07/20 06:54:26;;;;;;;9.55;3.78;;;25.70;76.30;;;;;;5073465;28;20111;-73
2022/07/20 06:56:52;;;;;;;7.05;3.65;;;25.80;76.10;;;;;;5072742;28;20028;-73
2022/07/20 06:59:18;;;;;;;8.23;4.10;;;25.90;76.10;;;;;;5073965;28;20044;-73
2022/07/20 07:01:44;;;;;;;7.90;3.80;;;26.00;76.40;;;;;;5071438;28;20485;-73
2022/07/20 07:04:10;;;;;;;7.97;3.80;;;26.00;76.60;;;;;;5073606;28;20042;-73
2022/07/20 07:06:35;;;;;;;8.02;4.15;;;26.00;76.90;;;;;;5044226;28;20375;-73
2022/07/20 07:09:01;;;;;;;9.25;4.00;;;26.10;76.80;;;;;;5066430;28;20037;-73
2022/07/20 07:11:27;;;;;;;11.02;3.90;;;26.20;76.00;;;;;;5065004;28;20053;-73
2022/07/20 07:13:52;;;;;;;8.57;4.30;;;26.20;76.00;;;;;;5050392;28;20045;-73
2022/07/20 07:16:18;;;;;;;9.43;3.85;;;26.30;76.00;;;;;;5067290;28;20122;-72
2022/07/20 07:18:44;;;;;;;10.10;4.25;;;26.30;75.80;;;;;;5073219;28;20055;-72
2022/07/20 07:21:10;;;;;;;9.27;4.13;;;26.30;76.00;;;;;;5072900;28;20119;-73
2022/07/20 07:23:36;;;;;;;9.38;4.20;;;26.40;75.70;;;;;;5072710;28;20040;-73
2022/07/20 07:26:02;;;;;;;11.50;4.55;;;26.40;76.10;;;;;;5072494;28;20070;-73
2022/07/20 07:28:27;;;;;;;11.10;4.40;;;26.50;76.40;;;;;;5068005;28;20093;-72
2022/07/20 07:30:53;;;;;;;11.05;4.40;;;26.50;76.30;;;;;;5058506;28;20090;-72
2022/07/20 07:33:24;;;;;;;7.35;4.20;;;26.50;76.30;;;;;;5061091;28;20173;-72
2022/07/20 07:35:50;;;;;;;10.13;4.78;;;26.60;76.60;;;;;;5079259;28;20112;-73
2022/07/20 07:38:16;;;;;;;10.35;4.65;;;26.60;76.70;;;;;;5082563;28;20032;-72
2022/07/20 07:40:42;;;;;;;10.60;4.82;;;26.60;76.70;;;;;;5082183;28;20032;-72
2022/07/20 07:43:07;;;;;;;7.68;5.07;;;26.70;77.20;;;;;;5059015;28;20426;-72
2022/07/20 07:45:33;;;;;;;9.05;4.78;;;26.70;77.50;;;;;;5070320;28;20040;-72
2022/07/20 07:47:58;;;;;;;14.30;5.55;;;26.80;77.90;;;;;;5063386;28;20040;-73
2022/07/20 07:50:24;;;;;;;10.98;5.43;;;26.90;78.20;;;;;;5092483;28;20131;-73
2022/07/20 07:52:50;;;;;;;11.02;5.40;;;26.90;78.30;;;;;;5075935;28;20082;-73
2022/07/20 07:55:15;;;;;;;10.13;5.60;;;27.00;78.70;;;;;;5073085;28;20056;-73
2022/07/20 07:57:42;;;;;;;12.07;5.53;;;27.00;79.20;;;;;;5066973;28;20135;-73
2022/07/20 08:00:08;;;;;;;10.73;5.50;;;27.10;79.80;;;;;;5071384;28;20398;-73
2022/07/20 08:02:34;;;;;;;9.48;5.72;;;27.20;80.00;;;;;;5076087;28;20052;-73
2022/07/20 08:04:59;;;;;;;13.27;6.20;;;27.20;80.30;;;;;;5072194;28;20051;-73
2022/07/20 08:07:25;;;;;;;12.00;6.22;;;27.30;80.70;;;;;;5053640;28;20071;-73
2022/07/20 08:09:51;;;;;;;13.85;7.20;;;27.40;81.20;;;;;;5073300;28;20130;-73
2022/07/20 08:12:16;;;;;;;16.55;7.28;;;27.40;81.90;;;;;;5091679;28;20048;-73
2022/07/20 08:14:42;;;;;;;13.27;7.00;;;27.50;82.00;;;;;;5078906;28;20045;-73
2022/07/20 08:17:07;;;;;;;16.63;7.43;;;27.50;82.50;;;;;;5091829;28;20139;-73
2022/07/20 08:19:33;;;;;;;14.32;7.82;;;27.50;83.20;;;;;;5058050;28;20096;-73
2022/07/20 08:21:59;;;;;;;12.27;7.80;;;27.60;83.50;;;;;;5071332;28;20040;-73
2022/07/20 08:24:24;;;;;;;14.40;8.10;;;27.60;84.20;;;;;;5071799;28;20032;-73
2022/07/20 08:26:50;;;;;;;16.10;8.65;;;27.70;85.00;;;;;;5053441;28;20044;-73
2022/07/20 08:29:16;;;;;;;14.32;8.60;;;27.70;85.10;;;;;;5071428;28;20041;-73
2022/07/20 08:31:41;;;;;;;17.23;8.82;;;27.70;85.70;;;;;;5074962;28;20561;-73
2022/07/20 08:34:07;;;;;;;14.50;8.55;;;27.80;86.00;;;;;;5051734;28;20048;-73
2022/07/20 08:36:33;;;;;;;17.00;8.65;;;27.90;86.10;;;;;;5076614;28;20046;-72
2022/07/20 08:38:59;;;;;;;16.20;9.50;;;27.90;86.40;;;;;;5078486;28;20036;-73
2022/07/20 08:41:25;;;;;;;18.98;9.45;;;27.90;86.70;;;;;;5071222;28;20040;-73
2022/07/20 08:43:51;;;;;;;19.58;9.93;;;28.00;87.40;;;;;;5071359;28;20052;-73
2022/07/20 08:46:18;;;;;;;19.73;10.40;;;28.10;88.50;;;;;;5073892;28;20045;-72
2022/07/20 08:48:43;;;;;;;20.15;10.52;;;28.10;88.90;;;;;;5040538;28;20554;-72
2022/07/20 08:51:09;;;;;;;20.88;11.27;;;28.20;90.00;;;;;;5075556;28;20044;-72
2022/07/20 08:53:35;;;;;;;26.73;12.63;;;28.20;90.10;;;;;;5075081;28;20047;-73
2022/07/20 08:56:01;;;;;;;20.70;13.15;;;28.30;90.20;;;;;;5074934;28;20060;-72
2022/07/20 08:58:26;;;;;;;19.58;12.75;;;28.20;90.40;;;;;;5075252;28;20037;-73
2022/07/20 09:00:52;;;;;;;28.10;14.20;;;28.30;90.60;;;;;;5075087;28;20457;-73
2022/07/20 09:03:18;;;;;;;22.77;13.80;;;28.40;90.90;;;;;;5075263;28;20044;-73
2022/07/20 09:05:44;;;;;;;24.63;13.35;;;28.50;91.00;;;;;;5075347;28;20036;-73
2022/07/20 09:08:17;;;;;;;22.00;13.13;;;28.60;91.00;;;;;;5057094;28;20040;-74
2022/07/20 09:10:46;;;;;;;22.35;14.20;;;28.70;91.20;;;;;;5072921;28;20144;-73
2022/07/20 09:13:21;;;;;;;23.02;13.98;;;28.80;91.30;;;;;;5036701;28;20414;-74
2022/07/20 09:15:53;;;;;;;22.38;13.98;;;28.90;91.70;;;;;;5036030;28;20103;-74
2022/07/20 09:18:23;;;;;;;21.10;14.63;;;29.00;92.00;;;;;;5053707;28;20393;-73
2022/07/20 09:20:57;;;;;;;24.67;15.70;;;29.10;92.10;;;;;;5036642;28;20045;-73
2022/07/20 09:23:30;;;;;;;22.80;15.53;;;29.30;91.80;;;;;;5054496;28;20080;-73
2022/07/20 09:25:59;;;;;;;24.85;15.20;;;29.30;91.70;;;;;;5055163;28;20044;-73
2022/07/20 09:28:40;;;;;;;26.33;16.40;;;29.30;91.80;;;;;;5074127;28;20144;-73
2022/07/20 09:31:16;;;;;;;24.60;16.70;;;29.40;92.00;;;;;;5056455;28;20496;-73
2022/07/20 09:33:50;;;;;;;27.38;16.73;;;29.30;92.20;;;;;;5074592;28;20174;-73
2022/07/20 09:36:17;;;;;;;28.33;16.63;;;29.40;92.30;;;;;;5056204;28;20063;-74
2022/07/20 09:38:43;;;;;;;26.85;17.05;;;29.40;92.20;;;;;;5074340;28;20048;-75
2022/07/20 09:41:32;;;;;;;27.17;18.15;;;29.40;92.40;;;;;;5074512;28;20170;-73
2022/07/20 09:43:59;;;;;;;32.47;17.58;;;29.50;92.40;;;;;;5074458;28;20051;-73
2022/07/20 09:46:27;;;;;;;26.38;16.50;;;29.50;92.40;;;;;;5074321;28;20049;-75
2022/07/20 09:48:55;;;;;;;25.25;17.58;;;29.70;92.30;;;;;;5073426;28;20402;-74
2022/07/20 09:51:30;;;;;;;28.60;17.70;;;29.90;92.40;;;;;;5073945;28;20460;-72
2022/07/20 09:54:08;;;;;;;24.88;17.55;;;30.10;92.50;;;;;;5072445;28;20068;-72
2022/07/20 09:56:36;;;;;;;22.77;16.33;;;30.50;92.40;;;;;;5053920;28;20048;-73
2022/07/20 09:59:04;;;;;;;25.85;15.95;;;31.00;91.70;;;;;;5074308;28;20044;-72
2022/07/20 10:01:32;;;;;;;23.83;15.95;;;31.60;91.20;;;;;;5072591;28;20154;-72
2022/07/20 10:04:00;;;;;;;23.38;15.52;;;32.40;89.10;;;;;;5074263;28;20056;-72
2022/07/20 10:06:27;;;;;;;23.80;15.60;;;33.60;86.80;;;;;;5074222;28;20072;-72
2022/07/20 10:08:53;;;;;;;25.30;14.93;;;34.70;84.40;;;;;;5074109;28;20067;-72
2022/07/20 10:11:21;;;;;;;22.10;14.52;;;35.90;82.40;;;;;;5056071;28;20381;-72
2022/07/20 10:13:48;;;;;;;24.73;14.38;;;36.80;80.60;;;;;;5074096;28;20131;-72
2022/07/20 10:16:26;;;;;;;25.95;15.10;;;37.90;79.20;;;;;;5074094;28;20087;-72
2022/07/20 10:18:53;;;;;;;19.33;14.65;;;37.90;77.40;;;;;;5074142;28;20036;-72
2022/07/20 10:21:46;;;;;;;26.30;13.85;;;37.10;74.40;;;;;;5054959;28;20123;-72
2022/07/20 10:24:16;;;;;;;17.10;12.55;;;37.60;72.50;;;;;;5056487;28;20455;-73
2022/07/20 10:26:42;;;;;;;19.48;12.10;;;38.30;72.40;;;;;;5073589;28;20040;-73
2022/07/20 10:29:09;;;;;;;23.02;12.77;;;38.50;72.30;;;;;;5073702;28;20342;-73
2022/07/20 10:31:51;;;;;;;15.73;11.45;;;39.20;71.90;;;;;;5055633;28;20063;-73
2022/07/20 10:34:37;;;;;;;17.25;11.75;;;40.30;71.00;;;;;;5062020;28;20175;-73
2022/07/20 10:37:28;;;;;;;18.20;11.80;;;41.00;70.20;;;;;;5035609;28;20041;-73
2022/07/20 10:39:56;;;;;;;15.82;10.65;;;42.00;69.50;;;;;;5053981;28;20044;-73
2022/07/20 10:42:26;;;;;;;16.30;10.20;;;42.40;67.50;;;;;;5053597;28;20048;-73
2022/07/20 10:44:52;;;;;;;16.13;10.23;;;42.70;66.90;;;;;;5053724;28;20178;-73
2022/07/20 10:47:41;;;;;;;15.05;9.13;;;42.80;66.50;;;;;;5053403;28;20049;-73
2022/07/20 10:50:08;;;;;;;16.27;9.45;;;43.90;65.10;;;;;;5041396;28;20513;-73
2022/07/20 10:52:34;;;;;;;18.33;9.75;;;43.30;65.40;;;;;;5053455;28;20053;-74
2022/07/20 10:55:01;;;;;;;13.73;8.80;;;43.50;65.40;;;;;;5035505;28;20049;-74
2022/07/20 10:57:27;;;;;;;13.68;8.75;;;44.00;65.10;;;;;;5053050;28;20500;-73
2022/07/20 11:00:08;;;;;;;14.13;8.40;;;43.30;64.20;;;;;;5053549;28;20041;-74
2022/07/20 11:02:34;;;;;;;13.57;8.02;;;42.70;63.10;;;;;;5052707;28;20048;-73
2022/07/20 11:05:00;;;;;;;13.40;7.57;;;41.40;62.60;;;;;;5035472;28;20432;-73
2022/07/20 11:07:34;;;;;;;12.35;7.63;;;41.00;62.10;;;;;;5070870;28;20063;-74
2022/07/20 11:10:17;;;;;;;12.02;7.55;;;40.10;63.00;;;;;;5055388;28;20106;-74
2022/07/20 11:12:43;;;;;;;16.75;7.45;;;38.90;64.80;;;;;;5072510;28;20048;-75
2022/07/20 11:15:09;;;;;;;11.93;7.55;;;37.70;65.10;;;;;;5073267;28;20045;-74
2022/07/20 11:17:35;;;;;;;15.95;7.45;;;37.30;65.90;;;;;;5071517;28;20047;-72
2022/07/20 11:20:01;;;;;;;12.07;6.85;;;36.80;66.00;;;;;;5072916;28;20040;-72
2022/07/20 11:22:27;;;;;;;9.95;6.90;;;36.50;66.70;;;;;;5054346;28;20044;-73
2022/07/20 11:24:54;;;;;;;12.38;6.95;;;35.90;67.20;;;;;;5073045;28;20080;-73
2022/07/20 11:27:20;;;;;;;13.95;7.35;;;35.70;67.70;;;;;;5072392;28;20044;-73
2022/07/20 11:29:52;;;;;;;11.60;7.30;;;35.60;68.20;;;;;;5072749;28;20045;-74
2022/07/20 11:32:18;;;;;;;12.95;7.35;;;35.50;67.80;;;;;;5075205;28;20052;-73
2022/07/20 11:34:47;;;;;;;13.23;7.68;;;35.50;69.00;;;;;;5087712;28;20543;-73
2022/07/20 11:37:18;;;;;;;14.13;8.27;;;35.50;68.00;;;;;;5072162;28;20505;-73
2022/07/20 11:39:44;;;;;;;11.30;7.60;;;35.90;68.40;;;;;;5064750;28;20051;-73
2022/07/20 11:42:12;;;;;;;14.90;8.23;;;37.10;68.50;;;;;;5088722;28;20118;-73
2022/07/20 11:44:37;;;;;;;18.10;8.05;;;38.30;67.60;;;;;;5087126;28;20067;-74
2022/07/20 11:47:03;;;;;;;13.73;8.38;;;39.70;66.80;;;;;;5073382;28;20415;-73
2022/07/20 11:49:29;;;;;;;16.00;7.78;;;41.10;65.90;;;;;;5075872;28;20394;-74
2022/07/20 11:52:01;;;;;;;12.50;7.70;;;42.50;65.10;;;;;;5048534;28;20033;-74
2022/07/20 11:54:35;;;;;;;12.32;7.20;;;44.00;64.00;;;;;;5077596;28;20044;-75
2022/07/20 11:57:02;;;;;;;13.68;6.88;;;44.60;62.30;;;;;;5078413;28;20119;-75
2022/07/20 11:59:28;;;;;;;11.00;7.07;;;45.30;62.30;;;;;;5073121;28;20098;-75
2022/07/20 12:01:57;;;;;;;15.60;7.10;;;45.70;62.10;;;;;;5068528;28;20599;-75
2022/07/20 12:04:23;;;;;;;12.52;6.35;;;45.80;61.50;;;;;;5068811;28;20048;-75
2022/07/20 12:06:52;;;;;;;11.85;5.72;;;45.40;60.30;;;;;;5052877;28;20093;-74
2022/07/20 12:09:21;;;;;;;11.20;5.35;;;45.20;59.80;;;;;;5066468;28;20044;-74
2022/07/20 12:11:59;;;;;;;11.75;5.82;;;44.40;60.40;;;;;;5050097;28;20067;-73
2022/07/20 12:14:42;;;;;;;8.13;5.15;;;44.40;59.80;;;;;;5066812;28;20101;-73
2022/07/20 12:17:13;;;;;;;10.77;5.32;;;44.20;59.40;;;;;;5067241;28;20110;-74
2022/07/20 12:19:44;;;;;;;11.55;5.22;;;43.50;58.70;;;;;;5048054;28;20101;-72
2022/07/20 12:22:18;;;;;;;9.05;4.80;;;42.70;59.00;;;;;;5067812;28;20682;-73
2022/07/20 12:24:59;;;;;;;11.00;5.00;;;41.00;58.90;;;;;;5069045;28;20053;-74
2022/07/20 12:27:27;;;;;;;12.98;4.78;;;39.70;60.70;;;;;;5088188;28;20322;-72
2022/07/20 12:29:53;;;;;;;11.35;5.30;;;38.40;60.80;;;;;;5071162;28;20044;-74
2022/07/20 12:32:39;;;;;;;8.30;5.05;;;37.10;61.60;;;;;;5036652;28;20102;-74
2022/07/20 12:35:06;;;;;;;9.10;5.22;;;36.40;61.60;;;;;;5052736;28;20453;-74
2022/07/20 12:37:56;;;;;;;8.70;5.50;;;36.00;62.80;;;;;;5067823;28;20185;-75
2022/07/20 12:40:33;;;;;;;12.38;6.10;;;35.70;64.80;;;;;;5036412;28;20055;-74
2022/07/20 12:42:58;;;;;;;12.13;5.90;;;34.90;66.00;;;;;;5065395;28;20071;-73